createdAt,value
2019-01-23T00:01:55.881Z,17.70
2019-01-23T00:04:23.212Z,16.40
2019-01-23T00:06:50.772Z,16.57
2019-01-23T00:09:18.288Z,17.47
2019-01-23T00:11:45.787Z,15.93
2019-01-23T00:14:13.245Z,18.87
2019-01-23T00:16:40.561Z,19.63
2019-01-23T00:19:08.120Z,18.13
2019-01-23T00:21:36.220Z,17.00
2019-01-23T00:24:04.331Z,17.10
2019-01-23T00:26:31.859Z,20.17
2019-01-23T00:28:59.380Z,17.47
2019-01-23T00:31:26.934Z,17.60
2019-01-23T00:33:54.465Z,18.13
2019-01-23T00:36:22.032Z,17.40
2019-01-23T00:38:49.373Z,19.47
2019-01-23T00:41:18.143Z,18.00
2019-01-23T00:43:45.565Z,18.43
2019-01-23T00:46:12.927Z,17.97
2019-01-23T00:48:41.051Z,17.53
2019-01-23T00:51:09.873Z,17.77
2019-01-23T00:53:37.380Z,17.80
2019-01-23T00:56:04.715Z,19.13
2019-01-23T00:58:32.121Z,19.13
2019-01-23T01:00:59.507Z,20.00
2019-01-23T01:03:26.895Z,16.57
2019-01-23T01:05:55.254Z,17.17
2019-01-23T01:08:22.705Z,18.53
2019-01-23T01:10:50.340Z,16.57
2019-01-23T01:13:17.871Z,18.67
2019-01-23T01:15:46.400Z,18.37
2019-01-23T01:18:13.793Z,17.13
2019-01-23T01:20:41.117Z,16.97
2019-01-23T01:23:08.480Z,16.53
2019-01-23T01:25:35.762Z,16.20
2019-01-23T01:28:03.186Z,14.03
2019-01-23T01:30:30.376Z,15.67
2019-01-23T01:32:57.719Z,15.30
2019-01-23T01:35:25.122Z,14.97
2019-01-23T01:37:52.458Z,14.00
2019-01-23T01:40:19.948Z,15.77
2019-01-23T01:42:47.420Z,15.03
2019-01-23T01:45:15.503Z,16.47
2019-01-23T01:47:42.863Z,16.43
2019-01-23T01:50:16.205Z,15.23
2019-01-23T01:52:43.688Z,14.73
2019-01-23T01:55:11.176Z,14.77
2019-01-23T01:57:38.730Z,16.07
2019-01-23T02:00:10.287Z,15.23
2019-01-23T02:02:37.669Z,15.97
2019-01-23T02:05:05.987Z,14.73
2019-01-23T02:07:33.391Z,16.93
2019-01-23T02:10:00.858Z,16.40
2019-01-23T02:12:28.254Z,15.47
2019-01-23T02:14:55.764Z,14.43
2019-01-23T02:17:23.204Z,14.17
2019-01-23T02:19:50.562Z,15.17
2019-01-23T02:22:17.942Z,14.90
2019-01-23T02:24:45.287Z,15.43
2019-01-23T02:27:12.669Z,14.80
2019-01-23T02:29:40.094Z,15.63
2019-01-23T02:32:07.433Z,15.27
2019-01-23T02:34:34.877Z,16.03
2019-01-23T02:37:02.191Z,15.87
2019-01-23T02:39:29.568Z,16.03
2019-01-23T02:41:57.034Z,17.07
2019-01-23T02:44:24.348Z,16.93
2019-01-23T02:46:51.736Z,17.03
2019-01-23T02:49:18.976Z,17.37
2019-01-23T02:51:46.279Z,15.73
2019-01-23T02:54:13.715Z,18.77
2019-01-23T02:56:41.133Z,18.17
2019-01-23T02:59:08.539Z,16.17
2019-01-23T03:01:35.978Z,16.33
2019-01-23T03:04:03.661Z,16.00
2019-01-23T03:06:30.999Z,16.97
2019-01-23T03:08:58.392Z,15.53
2019-01-23T03:11:25.722Z,16.53
2019-01-23T03:13:53.185Z,15.87
2019-01-23T03:16:20.684Z,16.13
2019-01-23T03:18:48.046Z,16.83
2019-01-23T03:21:15.415Z,17.50
2019-01-23T03:23:42.699Z,18.53
2019-01-23T03:26:10.345Z,18.07
2019-01-23T03:28:37.696Z,17.33
2019-01-23T03:31:05.086Z,16.83
2019-01-23T03:33:32.413Z,17.87
2019-01-23T03:35:59.837Z,16.67
2019-01-23T03:38:27.253Z,16.47
2019-01-23T03:40:54.616Z,17.90
2019-01-23T03:43:21.850Z,18.10
2019-01-23T03:45:49.216Z,16.90
2019-01-23T03:48:16.520Z,18.20
2019-01-23T03:50:43.880Z,16.73
2019-01-23T03:53:11.169Z,17.40
2019-01-23T03:55:38.571Z,17.37
2019-01-23T03:58:05.873Z,15.90
2019-01-23T04:00:33.402Z,16.67
2019-01-23T04:03:00.927Z,16.30
2019-01-23T04:05:28.189Z,17.13
2019-01-23T04:07:55.668Z,17.83
2019-01-23T04:10:23.091Z,17.00
2019-01-23T04:12:50.492Z,18.53
2019-01-23T04:15:17.777Z,16.43
2019-01-23T04:17:45.232Z,16.73
2019-01-23T04:20:15.172Z,16.30
2019-01-23T04:22:42.725Z,16.63
2019-01-23T04:25:10.156Z,15.20
2019-01-23T04:27:37.458Z,16.20
2019-01-23T04:30:06.930Z,16.30
2019-01-23T04:32:34.247Z,15.83
2019-01-23T04:35:01.668Z,15.97
2019-01-23T04:37:29.101Z,16.03
2019-01-23T04:39:56.517Z,16.70
2019-01-23T04:42:23.923Z,17.13
2019-01-23T04:44:51.358Z,16.97
2019-01-23T04:47:18.763Z,17.37
2019-01-23T04:49:46.249Z,16.80
2019-01-23T04:52:32.946Z,17.33
2019-01-23T04:55:00.311Z,17.20
2019-01-23T04:57:27.722Z,17.50
2019-01-23T04:59:55.199Z,18.23
2019-01-23T05:02:22.670Z,18.03
2019-01-23T05:04:50.071Z,17.60
2019-01-23T05:07:17.392Z,17.87
2019-01-23T05:09:44.766Z,17.90
2019-01-23T05:12:12.196Z,18.07
2019-01-23T05:14:39.576Z,18.13
2019-01-23T05:17:06.959Z,17.40
2019-01-23T05:19:34.374Z,17.23
2019-01-23T05:22:01.729Z,17.73
2019-01-23T05:24:29.157Z,19.00
2019-01-23T05:26:56.586Z,16.57
2019-01-23T05:29:23.982Z,18.17
2019-01-23T05:31:51.351Z,17.57
2019-01-23T05:34:18.694Z,16.43
2019-01-23T05:36:46.025Z,17.40
2019-01-23T05:39:13.299Z,16.60
2019-01-23T05:41:40.692Z,19.40
2019-01-23T05:44:08.142Z,19.10
2019-01-23T05:46:35.444Z,16.83
2019-01-23T05:49:02.914Z,17.53
2019-01-23T05:51:30.201Z,17.37
2019-01-23T05:54:00.093Z,17.73
2019-01-23T05:56:27.316Z,17.10
2019-01-23T05:58:59.427Z,17.93
2019-01-23T06:01:27.099Z,17.77
2019-01-23T06:03:54.432Z,17.30
2019-01-23T06:06:22.000Z,19.80
2019-01-23T06:08:49.368Z,18.17
2019-01-23T06:11:16.868Z,18.20
2019-01-23T06:13:44.189Z,18.43
2019-01-23T06:16:11.581Z,18.17
2019-01-23T06:18:42.083Z,20.47
2019-01-23T06:21:09.409Z,20.47
2019-01-23T06:23:36.755Z,17.60
2019-01-23T06:26:03.965Z,20.57
2019-01-23T06:28:31.421Z,18.77
2019-01-23T06:30:58.803Z,19.13
2019-01-23T06:33:30.007Z,17.50
2019-01-23T06:36:15.753Z,17.37
2019-01-23T06:38:43.120Z,17.20
2019-01-23T06:41:10.561Z,18.27
2019-01-23T06:43:37.993Z,19.60
2019-01-23T06:46:05.429Z,19.53
2019-01-23T06:48:32.895Z,19.30
2019-01-23T06:51:00.343Z,18.83
2019-01-23T06:53:27.801Z,20.50
2019-01-23T06:55:55.267Z,22.77
2019-01-23T06:58:22.739Z,21.03
2019-01-23T07:00:49.929Z,21.73
2019-01-23T07:03:17.251Z,24.03
2019-01-23T07:05:44.789Z,20.23
2019-01-23T07:08:12.097Z,23.30
2019-01-23T07:10:39.495Z,24.57
2019-01-23T07:13:06.790Z,22.23
2019-01-23T07:15:34.229Z,21.47
2019-01-23T07:18:01.387Z,20.03
2019-01-23T07:20:28.714Z,22.67
2019-01-23T07:22:56.480Z,22.53
2019-01-23T07:25:25.388Z,22.23
2019-01-23T07:27:52.652Z,21.13
2019-01-23T07:30:30.619Z,22.67
2019-01-23T07:32:58.026Z,20.73
2019-01-23T07:35:25.367Z,20.87
2019-01-23T07:37:52.738Z,20.40
2019-01-23T07:40:20.030Z,21.03
2019-01-23T07:42:47.300Z,21.10
2019-01-23T07:45:15.138Z,22.00
2019-01-23T07:47:42.512Z,21.57
2019-01-23T07:50:10.221Z,22.67
2019-01-23T07:52:37.509Z,23.43
2019-01-23T07:55:08.370Z,22.57
2019-01-23T07:57:35.764Z,18.97
2019-01-23T08:00:04.156Z,19.63
2019-01-23T08:02:31.606Z,21.03
2019-01-23T08:04:58.862Z,21.00
2019-01-23T08:07:26.140Z,18.90
2019-01-23T08:09:53.544Z,19.30
2019-01-23T08:12:20.880Z,19.47
2019-01-23T08:14:48.273Z,18.13
2019-01-23T08:17:15.697Z,17.77
2019-01-23T08:19:43.160Z,18.77
2019-01-23T08:22:10.615Z,19.13
2019-01-23T08:24:41.744Z,18.70
2019-01-23T08:27:09.548Z,18.13
2019-01-23T08:29:37.994Z,18.10
2019-01-23T08:32:05.422Z,20.43
2019-01-23T08:34:32.755Z,19.30
2019-01-23T08:37:00.254Z,18.10
2019-01-23T08:39:30.268Z,19.17
2019-01-23T08:41:57.706Z,20.17
2019-01-23T08:44:25.145Z,20.60
2019-01-23T08:46:52.918Z,19.63
2019-01-23T08:49:23.906Z,20.83
2019-01-23T08:51:51.427Z,19.70
2019-01-23T08:54:18.910Z,20.07
2019-01-23T08:56:46.617Z,20.27
2019-01-23T08:59:14.002Z,17.97
2019-01-23T09:01:49.475Z,19.97
2019-01-23T09:04:16.874Z,19.30
2019-01-23T09:06:44.262Z,17.90
2019-01-23T09:09:11.656Z,18.20
2019-01-23T09:11:39.119Z,17.80
2019-01-23T09:14:06.533Z,22.43
2019-01-23T09:16:33.976Z,22.30
2019-01-23T09:19:01.466Z,21.83
2019-01-23T09:21:28.732Z,23.73
2019-01-23T09:23:56.072Z,20.53
2019-01-23T09:26:23.457Z,22.13
2019-01-23T09:28:50.777Z,20.63
2019-01-23T09:32:06.179Z,21.83
2019-01-23T09:34:51.925Z,19.20
2019-01-23T09:38:10.235Z,20.63
2019-01-23T09:40:59.816Z,20.37
2019-01-23T09:44:13.257Z,23.00
2019-01-23T09:47:20.009Z,21.27
2019-01-23T09:50:19.206Z,23.20
2019-01-23T09:52:53.587Z,18.93
2019-01-23T09:55:21.098Z,20.60
2019-01-23T09:57:52.852Z,20.23
2019-01-23T10:00:23.344Z,25.00
2019-01-23T10:02:51.286Z,22.27
2019-01-23T10:05:18.682Z,22.77
2019-01-23T10:07:46.123Z,21.80
2019-01-23T10:10:14.467Z,22.90
2019-01-23T10:12:45.071Z,23.37
2019-01-23T10:15:16.723Z,21.83
2019-01-23T10:17:44.198Z,21.60
2019-01-23T10:20:11.651Z,21.50
2019-01-23T10:22:38.999Z,23.27
2019-01-23T10:25:07.432Z,21.90
2019-01-23T10:27:34.818Z,24.00
2019-01-23T10:30:02.698Z,24.13
2019-01-23T10:32:30.120Z,21.13
2019-01-23T10:34:59.392Z,19.33
2019-01-23T10:37:26.827Z,21.27
2019-01-23T10:39:54.242Z,23.60
2019-01-23T10:42:21.609Z,22.03
2019-01-23T10:44:49.391Z,24.10
2019-01-23T10:47:17.037Z,22.43
2019-01-23T10:49:44.434Z,21.17
2019-01-23T10:52:15.254Z,22.03
2019-01-23T10:54:43.431Z,21.53
2019-01-23T10:57:10.956Z,20.87
2019-01-23T10:59:39.597Z,23.17
2019-01-23T11:02:09.974Z,22.83
2019-01-23T11:04:42.985Z,24.57
2019-01-23T11:07:10.409Z,24.30
2019-01-23T11:09:37.844Z,21.17
2019-01-23T11:12:05.325Z,21.97
2019-01-23T11:14:32.757Z,21.07
2019-01-23T11:17:00.169Z,22.23
2019-01-23T11:19:28.933Z,19.87
2019-01-23T11:21:56.375Z,20.60
2019-01-23T11:24:23.931Z,18.60
2019-01-23T11:26:51.489Z,18.87
2019-01-23T11:29:20.469Z,20.03
2019-01-23T11:31:47.991Z,21.73
2019-01-23T11:34:15.314Z,21.50
2019-01-23T11:36:42.880Z,19.70
2019-01-23T11:39:10.150Z,20.90
2019-01-23T11:41:37.706Z,20.60
2019-01-23T11:44:04.989Z,19.77
2019-01-23T11:46:32.377Z,19.43
2019-01-23T11:48:59.837Z,19.83
2019-01-23T11:51:27.293Z,18.53
2019-01-23T11:53:54.819Z,20.13
2019-01-23T11:56:22.312Z,19.50
2019-01-23T11:58:49.989Z,20.13
2019-01-23T12:01:17.435Z,20.27
2019-01-23T12:03:44.822Z,21.10
2019-01-23T12:06:12.312Z,20.53
2019-01-23T12:08:39.553Z,20.33
2019-01-23T12:11:06.797Z,20.37
2019-01-23T12:13:34.151Z,21.50
2019-01-23T12:16:01.499Z,21.27
2019-01-23T12:18:29.279Z,21.33
2019-01-23T12:20:56.781Z,21.77
2019-01-23T12:23:26.535Z,20.20
2019-01-23T12:25:53.888Z,19.40
2019-01-23T12:28:21.231Z,18.17
2019-01-23T12:30:48.617Z,18.07
2019-01-23T12:33:16.165Z,19.80
2019-01-23T12:35:43.654Z,19.23
2019-01-23T12:38:11.075Z,17.60
2019-01-23T12:40:38.457Z,20.00
2019-01-23T12:43:05.887Z,18.43
2019-01-23T12:45:33.295Z,17.60
2019-01-23T12:48:00.977Z,18.00
2019-01-23T12:50:30.425Z,19.80
2019-01-23T12:52:57.702Z,17.17
2019-01-23T12:55:25.094Z,16.93
2019-01-23T12:57:52.585Z,17.30
2019-01-23T13:00:23.306Z,18.57
2019-01-23T13:02:50.923Z,20.07
2019-01-23T13:05:21.219Z,19.27
2019-01-23T13:07:48.583Z,16.60
2019-01-23T13:10:16.605Z,16.53
2019-01-23T13:12:44.259Z,18.40
2019-01-23T13:15:13.785Z,17.40
2019-01-23T13:17:41.444Z,17.67
2019-01-23T13:20:11.047Z,19.37
2019-01-23T13:22:38.745Z,19.20
2019-01-23T13:25:09.193Z,18.80
2019-01-23T13:27:36.955Z,19.47
2019-01-23T13:30:06.272Z,19.43
2019-01-23T13:32:34.094Z,19.97
2019-01-23T13:35:01.595Z,19.30
2019-01-23T13:37:29.050Z,18.53
2019-01-23T13:39:56.523Z,16.90
2019-01-23T13:42:24.009Z,19.47
2019-01-23T13:44:51.618Z,17.97
2019-01-23T13:47:18.975Z,18.70
2019-01-23T13:49:46.422Z,18.67
2019-01-23T13:52:13.756Z,21.00
2019-01-23T13:54:41.364Z,18.83
2019-01-23T13:57:08.950Z,19.67
2019-01-23T13:59:36.640Z,20.57
2019-01-23T14:02:04.180Z,20.07
2019-01-23T14:04:32.330Z,18.10
2019-01-23T14:06:59.845Z,19.80
2019-01-23T14:09:27.412Z,18.00
2019-01-23T14:11:54.814Z,18.63
2019-01-23T14:14:22.268Z,17.50
2019-01-23T14:16:49.780Z,18.30
2019-01-23T14:19:17.308Z,18.27
2019-01-23T14:21:44.662Z,17.43
2019-01-23T14:24:11.950Z,18.47
2019-01-23T14:26:39.316Z,18.13
2019-01-23T14:29:06.756Z,18.63
2019-01-23T14:31:34.252Z,17.50
2019-01-23T14:34:01.881Z,17.23
2019-01-23T14:36:29.609Z,18.03
2019-01-23T14:38:58.567Z,17.33
2019-01-23T14:41:25.974Z,17.47
2019-01-23T14:43:53.577Z,18.43
2019-01-23T14:46:21.002Z,18.30
2019-01-23T14:48:48.481Z,17.70
2019-01-23T14:51:15.864Z,17.70
2019-01-23T14:53:43.330Z,18.03
2019-01-23T14:56:10.746Z,17.13
2019-01-23T14:58:38.043Z,16.93
2019-01-23T15:01:05.354Z,18.33
2019-01-23T15:03:32.898Z,18.40
2019-01-23T15:06:00.263Z,16.60
2019-01-23T15:08:28.593Z,17.63
2019-01-23T15:10:55.908Z,16.10
2019-01-23T15:13:23.257Z,17.20
2019-01-23T15:15:50.779Z,16.13
2019-01-23T15:18:18.201Z,18.27
2019-01-23T15:20:45.522Z,16.17
2019-01-23T15:23:12.787Z,18.13
2019-01-23T15:25:40.238Z,18.07
2019-01-23T15:28:07.702Z,17.97
2019-01-23T15:30:36.043Z,18.47
2019-01-23T15:33:03.657Z,18.40
2019-01-23T15:35:31.272Z,18.77
2019-01-23T15:37:58.725Z,16.33
2019-01-23T15:40:27.131Z,17.63
2019-01-23T15:42:54.359Z,16.17
2019-01-23T15:45:21.730Z,17.00
2019-01-23T15:47:48.991Z,16.50
2019-01-23T15:50:19.153Z,15.97
2019-01-23T15:52:46.698Z,17.77
2019-01-23T15:55:16.057Z,16.93
2019-01-23T15:57:43.579Z,16.33
2019-01-23T16:00:17.355Z,17.67
2019-01-23T16:02:44.693Z,17.17
2019-01-23T16:05:12.673Z,17.50
2019-01-23T16:07:40.167Z,17.70
2019-01-23T16:10:09.553Z,18.27
2019-01-23T16:12:40.888Z,16.93
2019-01-23T16:18:05.461Z,16.77
2019-01-23T16:20:32.743Z,17.57
2019-01-23T16:23:00.303Z,18.23
2019-01-23T16:25:27.667Z,15.97
2019-01-23T16:27:55.185Z,16.77
2019-01-23T16:30:30.195Z,19.10
2019-01-23T16:32:57.685Z,18.13
2019-01-23T16:35:25.156Z,16.50
2019-01-23T16:37:52.707Z,15.87
2019-01-23T16:40:20.137Z,16.67
2019-01-23T16:42:47.643Z,16.57
2019-01-23T16:45:15.288Z,15.37
2019-01-23T16:47:42.669Z,16.00
2019-01-23T16:50:13.440Z,14.70
2019-01-23T16:52:41.036Z,16.67
2019-01-23T16:55:08.524Z,14.40
2019-01-23T16:57:35.973Z,14.67
2019-01-23T17:00:04.921Z,14.60
2019-01-23T17:02:38.503Z,15.37
2019-01-23T17:05:21.162Z,16.13
2019-01-23T17:07:48.687Z,14.67
2019-01-23T17:10:17.324Z,15.43
2019-01-23T17:12:44.530Z,14.57
2019-01-23T17:15:11.786Z,15.63
2019-01-23T17:17:39.120Z,16.33
2019-01-23T17:20:12.750Z,13.60
2019-01-23T17:22:40.302Z,16.13
2019-01-23T17:25:09.957Z,15.33
2019-01-23T17:27:37.379Z,14.83
2019-01-23T17:30:06.082Z,15.00
2019-01-23T17:32:33.402Z,15.87
2019-01-23T17:35:00.828Z,16.87
2019-01-23T17:37:28.495Z,15.63
2019-01-23T17:39:55.870Z,15.90
2019-01-23T17:42:23.274Z,15.37
2019-01-23T17:44:50.572Z,16.63
2019-01-23T17:47:18.005Z,16.33
2019-01-23T17:49:45.851Z,17.80
2019-01-23T17:52:13.292Z,16.73
2019-01-23T17:54:40.632Z,17.50
2019-01-23T17:57:07.978Z,16.67
2019-01-23T17:59:35.451Z,17.33
2019-01-23T18:02:02.858Z,18.40
2019-01-23T18:04:30.307Z,18.07
2019-01-23T18:06:57.677Z,18.77
2019-01-23T18:09:25.172Z,17.83
2019-01-23T18:11:54.813Z,19.00
2019-01-23T18:14:22.216Z,17.37
2019-01-23T18:16:52.354Z,17.93
2019-01-23T18:22:06.879Z,17.17
2019-01-23T18:24:35.281Z,18.30
2019-01-23T18:27:08.139Z,18.30
2019-01-23T18:29:57.274Z,18.93
2019-01-23T18:32:24.549Z,18.07
2019-01-23T18:35:11.094Z,18.87
2019-01-23T18:37:57.933Z,18.77
2019-01-23T18:41:03.067Z,20.20
2019-01-23T18:44:13.806Z,17.93
2019-01-23T18:47:34.975Z,18.33
2019-01-23T18:50:20.537Z,17.77
2019-01-23T18:52:47.843Z,18.87
2019-01-23T18:55:16.736Z,18.47
2019-01-23T18:57:44.597Z,18.87
2019-01-23T19:00:14.533Z,20.33
2019-01-23T19:02:42.791Z,20.27
2019-01-23T19:05:13.860Z,20.37
2019-01-23T19:07:44.736Z,18.87
2019-01-23T19:10:13.023Z,18.50
2019-01-23T19:12:40.419Z,18.43
2019-01-23T19:15:10.171Z,18.20
2019-01-23T19:17:37.611Z,18.53
2019-01-23T19:20:08.963Z,18.77
2019-01-23T19:22:37.069Z,19.57
2019-01-23T19:25:07.216Z,20.30
2019-01-23T19:28:02.448Z,19.60
2019-01-23T19:30:29.910Z,20.23
2019-01-23T19:33:01.523Z,20.43
2019-01-23T19:35:28.943Z,19.40
2019-01-23T19:37:56.391Z,19.37
2019-01-23T19:40:23.950Z,19.07
2019-01-23T19:42:51.488Z,18.43
2019-01-23T19:45:19.659Z,19.10
2019-01-23T19:47:47.185Z,19.03
2019-01-23T19:50:14.755Z,19.97
2019-01-23T19:52:44.426Z,19.83
2019-01-23T19:55:13.995Z,22.33
2019-01-23T19:57:41.463Z,19.13
2019-01-23T20:00:14.377Z,19.00
2019-01-23T20:02:41.812Z,19.80
2019-01-23T20:05:30.021Z,19.93
2019-01-23T20:08:09.165Z,18.83
2019-01-23T20:10:39.633Z,21.77
2019-01-23T20:19:07.010Z,19.80
2019-01-23T20:21:38.574Z,18.40
2019-01-23T20:24:36.455Z,18.77
2019-01-23T20:27:39.015Z,20.80
2019-01-23T20:30:32.537Z,18.40
2019-01-23T20:33:00.100Z,18.10
2019-01-23T20:35:27.634Z,20.63
2019-01-23T20:37:57.092Z,20.53
2019-01-23T20:40:24.429Z,21.37
2019-01-23T20:42:51.890Z,21.53
2019-01-23T20:45:22.088Z,20.07
2019-01-23T20:48:00.190Z,19.50
2019-01-23T20:50:30.236Z,19.73
2019-01-23T20:53:03.120Z,19.10
2019-01-23T20:55:30.574Z,18.20
2019-01-23T20:58:06.938Z,21.67
2019-01-23T21:00:35.196Z,20.67
2019-01-23T21:03:03.196Z,19.87
2019-01-23T21:05:34.742Z,18.80
2019-01-23T21:08:02.344Z,20.63
2019-01-23T21:10:32.486Z,19.37
2019-01-23T21:13:15.344Z,20.53
2019-01-23T21:15:43.214Z,20.50
2019-01-23T21:18:11.809Z,19.30
2019-01-23T21:20:40.125Z,19.83
2019-01-23T21:23:09.482Z,19.37
2019-01-23T21:25:37.873Z,18.97
2019-01-23T21:28:05.340Z,19.63
2019-01-23T21:30:33.044Z,19.20
2019-01-23T21:33:00.440Z,17.97
2019-01-23T21:35:30.553Z,19.77
2019-01-23T21:37:58.376Z,18.47
2019-01-23T21:40:28.530Z,19.70
2019-01-23T21:42:59.288Z,17.60
2019-01-23T21:45:26.871Z,18.87
2019-01-23T21:47:55.231Z,19.17
2019-01-23T21:50:30.374Z,18.77
2019-01-23T21:53:00.282Z,18.10
2019-01-23T21:55:27.573Z,19.30
2019-01-23T21:57:54.919Z,18.80
2019-01-23T22:00:46.470Z,18.20
2019-01-23T22:03:14.018Z,17.67
2019-01-23T22:05:41.385Z,17.57
2019-01-23T22:08:08.738Z,17.70
2019-01-23T22:10:36.061Z,18.13
2019-01-23T22:13:03.660Z,17.10
2019-01-23T22:15:33.223Z,18.50
2019-01-23T22:18:00.643Z,17.10
2019-01-23T22:20:28.184Z,18.40
2019-01-23T22:22:55.585Z,18.73
2019-01-23T22:25:23.883Z,17.10
2019-01-23T22:27:52.753Z,18.23
2019-01-23T22:30:22.459Z,19.07
2019-01-23T22:32:49.852Z,16.63
2019-01-23T22:35:17.457Z,18.90
2019-01-23T22:40:34.377Z,16.53
2019-01-23T22:43:01.826Z,18.97
2019-01-23T22:45:29.321Z,17.47
2019-01-23T22:47:56.781Z,18.30
2019-01-23T22:50:25.975Z,17.70
2019-01-23T22:52:53.543Z,17.23
2019-01-23T22:55:20.974Z,16.37
2019-01-23T22:57:48.602Z,18.17
2019-01-23T23:00:23.497Z,17.73
2019-01-23T23:02:50.976Z,17.33
2019-01-23T23:05:18.432Z,20.63
2019-01-23T23:07:45.916Z,18.83
2019-01-23T23:10:13.743Z,18.43
2019-01-23T23:12:41.166Z,17.80
2019-01-23T23:15:08.715Z,19.17
2019-01-23T23:17:36.145Z,17.97
2019-01-23T23:20:04.519Z,18.67
2019-01-23T23:22:32.034Z,17.03
2019-01-23T23:25:02.756Z,16.87
2019-01-23T23:27:30.529Z,17.07
2019-01-23T23:29:58.206Z,16.97
2019-01-23T23:32:25.796Z,17.63
2019-01-23T23:35:04.044Z,16.97
2019-01-23T23:37:31.316Z,17.90
2019-01-23T23:39:58.756Z,17.87
2019-01-23T23:42:35.383Z,18.50
2019-01-23T23:45:42.737Z,17.80
2019-01-23T23:48:10.070Z,17.77
2019-01-23T23:50:37.421Z,17.50
2019-01-23T23:55:57.127Z,17.63
2019-01-23T23:58:27.728Z,17.87
